sensor_id;sensor_type;location;lat;lon;timestamp;pressure;altitude;pressure_sealevel;temperature;humidity
8637;BME280;4356;49.068;8.658;2023-01-28T00:00:07;100575.19;;;16.16;34.05
8637;BME280;4356;49.068;8.658;2023-01-28T00:02:36;100578.69;;;16.10;34.47
8637;BME280;4356;49.068;8.658;2023-01-28T00:05:02;100583.53;;;16.15;34.39
8637;BME280;4356;49.068;8.658;2023-01-28T00:07:28;100584.78;;;16.12;34.06
8637;BME280;4356;49.068;8.658;2023-01-28T00:09:54;100590.19;;;16.12;34.07
8637;BME280;4356;49.068;8.658;2023-01-28T00:12:19;100593.53;;;16.14;34.02
8637;BME280;4356;49.068;8.658;2023-01-28T00:14:45;100588.50;;;16.11;34.44
8637;BME280;4356;49.068;8.658;2023-01-28T00:17:12;100591.88;;;16.13;34.20
8637;BME280;4356;49.068;8.658;2023-01-28T00:19:38;100582.63;;;16.08;34.15
8637;BME280;4356;49.068;8.658;2023-01-28T00:22:04;100582.22;;;16.11;34.18
8637;BME280;4356;49.068;8.658;2023-01-28T00:24:30;100575.69;;;16.05;34.11
8637;BME280;4356;49.068;8.658;2023-01-28T00:26:56;100579.25;;;16.06;34.32
8637;BME280;4356;49.068;8.658;2023-01-28T00:29:21;100583.47;;;16.08;34.31
8637;BME280;4356;49.068;8.658;2023-01-28T00:31:47;100573.16;;;16.04;34.34
8637;BME280;4356;49.068;8.658;2023-01-28T00:34:13;100581.09;;;16.05;34.41
8637;BME280;4356;49.068;8.658;2023-01-28T00:36:38;100585.06;;;16.03;34.20
8637;BME280;4356;49.068;8.658;2023-01-28T00:39:05;100580.28;;;16.05;34.36
8637;BME280;4356;49.068;8.658;2023-01-28T00:41:31;100581.09;;;16.05;34.29
8637;BME280;4356;49.068;8.658;2023-01-28T00:43:57;100564.78;;;15.99;34.32
8637;BME280;4356;49.068;8.658;2023-01-28T00:46:23;100572.72;;;16.00;34.24
8637;BME280;4356;49.068;8.658;2023-01-28T00:48:51;100573.94;;;15.98;34.42
8637;BME280;4356;49.068;8.658;2023-01-28T00:51:18;100545.81;;;15.84;34.37
8637;BME280;4356;49.068;8.658;2023-01-28T00:53:45;100571.03;;;15.99;34.33
8637;BME280;4356;49.068;8.658;2023-01-28T00:56:16;100572.25;;;15.97;34.35
8637;BME280;4356;49.068;8.658;2023-01-28T00:58:43;100568.88;;;15.95;34.26
8637;BME280;4356;49.068;8.658;2023-01-28T01:01:11;100587.31;;;15.99;34.29
8637;BME280;4356;49.068;8.658;2023-01-28T01:03:37;100571.78;;;15.93;34.28
8637;BME280;4356;49.068;8.658;2023-01-28T01:06:04;100561.03;;;15.85;34.40
8637;BME280;4356;49.068;8.658;2023-01-28T01:08:29;100585.81;;;15.97;34.31
8637;BME280;4356;49.068;8.658;2023-01-28T01:11:05;100579.66;;;15.88;34.17
8637;BME280;4356;49.068;8.658;2023-01-28T01:13:32;100588.72;;;15.95;34.34
8637;BME280;4356;49.068;8.658;2023-01-28T01:18:33;100583.69;;;15.92;34.54
8637;BME280;4356;49.068;8.658;2023-01-28T01:21:00;100583.03;;;15.90;34.54
8637;BME280;4356;49.068;8.658;2023-01-28T01:23:28;100589.91;;;15.93;34.60
8637;BME280;4356;49.068;8.658;2023-01-28T01:25:53;100583.38;;;15.87;34.36
8637;BME280;4356;49.068;8.658;2023-01-28T01:28:20;100583.03;;;15.90;34.48
8637;BME280;4356;49.068;8.658;2023-01-28T01:30:46;100585.72;;;15.90;34.18
8637;BME280;4356;49.068;8.658;2023-01-28T01:33:12;100580.66;;;15.87;34.53
8637;BME280;4356;49.068;8.658;2023-01-28T01:35:38;100574.44;;;15.87;34.23
8637;BME280;4356;49.068;8.658;2023-01-28T01:38:04;100586.28;;;15.86;34.39
8637;BME280;4356;49.068;8.658;2023-01-28T01:40:30;100571.41;;;15.82;34.36
8637;BME280;4356;49.068;8.658;2023-01-28T01:42:55;100577.97;;;15.87;34.66
8637;BME280;4356;49.068;8.658;2023-01-28T01:45:21;100579.66;;;15.88;34.46
8637;BME280;4356;49.068;8.658;2023-01-28T01:53:06;100578.53;;;15.83;34.45
8637;BME280;4356;49.068;8.658;2023-01-28T01:55:34;100575.81;;;15.83;34.58
8637;BME280;4356;49.068;8.658;2023-01-28T01:58:05;100572.28;;;15.82;34.41
8637;BME280;4356;49.068;8.658;2023-01-28T02:00:31;100577.69;;;15.82;34.57
8637;BME280;4356;49.068;8.658;2023-01-28T02:02:57;100575.38;;;15.79;34.40
8637;BME280;4356;49.068;8.658;2023-01-28T02:05:23;100586.00;;;15.81;34.60
8637;BME280;4356;49.068;8.658;2023-01-28T02:07:52;100575.38;;;15.79;34.78
8637;BME280;4356;49.068;8.658;2023-01-28T02:10:42;100577.41;;;15.77;34.54
8637;BME280;4356;49.068;8.658;2023-01-28T02:13:08;100571.34;;;15.75;34.39
8637;BME280;4356;49.068;8.658;2023-01-28T02:15:34;100575.72;;;15.76;34.83
8637;BME280;4356;49.068;8.658;2023-01-28T02:18:00;100577.81;;;15.74;34.55
8637;BME280;4356;49.068;8.658;2023-01-28T02:28:44;100578.81;;;15.73;34.57
8637;BME280;4356;49.068;8.658;2023-01-28T02:31:42;100582.56;;;15.72;34.84
8637;BME280;4356;49.068;8.658;2023-01-28T02:34:18;100593.22;;;15.74;34.78
8637;BME280;4356;49.068;8.658;2023-01-28T02:39:41;100590.69;;;15.72;34.60
8637;BME280;4356;49.068;8.658;2023-01-28T02:42:17;100586.66;;;15.68;34.55
8637;BME280;4356;49.068;8.658;2023-01-28T02:44:45;100596.47;;;15.69;34.45
8637;BME280;4356;49.068;8.658;2023-01-28T02:47:12;100591.44;;;15.66;34.78
8637;BME280;4356;49.068;8.658;2023-01-28T02:49:59;100593.94;;;15.68;34.59
8637;BME280;4356;49.068;8.658;2023-01-28T02:58:38;100605.19;;;15.65;34.70
8637;BME280;4356;49.068;8.658;2023-01-28T03:01:27;100601.63;;;15.64;34.75
8637;BME280;4356;49.068;8.658;2023-01-28T03:03:58;100595.72;;;15.61;34.44
8637;BME280;4356;49.068;8.658;2023-01-28T03:06:34;100597.13;;;15.57;34.69
8637;BME280;4356;49.068;8.658;2023-01-28T03:09:05;100591.69;;;15.57;34.83
8637;BME280;4356;49.068;8.658;2023-01-28T03:12:17;100600.13;;;15.62;34.87
8637;BME280;4356;49.068;8.658;2023-01-28T03:15:21;100602.72;;;15.55;35.04
8637;BME280;4356;49.068;8.658;2023-01-28T03:18:31;100598.16;;;15.56;34.94
8637;BME280;4356;49.068;8.658;2023-01-28T03:21:34;100602.34;;;15.58;34.70
8637;BME280;4356;49.068;8.658;2023-01-28T03:24:23;100590.56;;;15.51;35.38
8637;BME280;4356;49.068;8.658;2023-01-28T03:29:54;100602.06;;;15.53;34.69
8637;BME280;4356;49.068;8.658;2023-01-28T03:32:40;100604.44;;;15.56;34.81
8637;BME280;4356;49.068;8.658;2023-01-28T03:35:28;100606.28;;;15.56;34.63
8637;BME280;4356;49.068;8.658;2023-01-28T03:38:13;100596.00;;;15.51;34.66
8637;BME280;4356;49.068;8.658;2023-01-28T03:40:57;100605.63;;;15.54;34.95
8637;BME280;4356;49.068;8.658;2023-01-28T03:43:24;100602.06;;;15.53;34.55
8637;BME280;4356;49.068;8.658;2023-01-28T03:45:50;100600.41;;;15.52;34.68
8637;BME280;4356;49.068;8.658;2023-01-28T03:48:21;100603.13;;;15.52;34.54
8637;BME280;4356;49.068;8.658;2023-01-28T03:50:48;100610.00;;;15.55;35.13
8637;BME280;4356;49.068;8.658;2023-01-28T03:53:14;100601.59;;;15.50;34.74
8637;BME280;4356;49.068;8.658;2023-01-28T03:55:41;100616.66;;;15.52;35.29
8637;BME280;4356;49.068;8.658;2023-01-28T03:58:10;100607.88;;;15.50;34.82
8637;BME280;4356;49.068;8.658;2023-01-28T04:00:37;100599.66;;;15.43;35.14
8637;BME280;4356;49.068;8.658;2023-01-28T04:03:15;100618.50;;;15.52;34.93
8637;BME280;4356;49.068;8.658;2023-01-28T04:05:46;100610.97;;;15.47;34.92
8637;BME280;4356;49.068;8.658;2023-01-28T04:08:21;100628.34;;;15.53;35.26
8637;BME280;4356;49.068;8.658;2023-01-28T04:10:48;100624.13;;;15.50;34.88
8637;BME280;4356;49.068;8.658;2023-01-28T04:13:13;100624.13;;;15.50;35.12
8637;BME280;4356;49.068;8.658;2023-01-28T04:15:41;100634.78;;;15.52;34.89
8637;BME280;4356;49.068;8.658;2023-01-28T04:18:08;100628.88;;;15.48;35.06
8637;BME280;4356;49.068;8.658;2023-01-28T04:20:34;100627.69;;;15.51;35.37
8637;BME280;4356;49.068;8.658;2023-01-28T04:23:00;100627.03;;;15.49;35.15
8637;BME280;4356;49.068;8.658;2023-01-28T04:25:26;100634.50;;;15.47;35.15
8637;BME280;4356;49.068;8.658;2023-01-28T04:27:52;100628.03;;;15.48;35.00
8637;BME280;4356;49.068;8.658;2023-01-28T04:30:18;100627.03;;;15.49;35.21
8637;BME280;4356;49.068;8.658;2023-01-28T04:32:45;100632.63;;;15.47;35.05
8637;BME280;4356;49.068;8.658;2023-01-28T04:35:11;100632.44;;;15.49;34.82
8637;BME280;4356;49.068;8.658;2023-01-28T04:37:39;100633.84;;;15.44;35.16
8637;BME280;4356;49.068;8.658;2023-01-28T04:40:05;100635.88;;;15.42;35.40
8637;BME280;4356;49.068;8.658;2023-01-28T04:42:31;100636.72;;;15.43;34.92
8637;BME280;4356;49.068;8.658;2023-01-28T04:44:57;100650.56;;;15.48;34.77
8637;BME280;4356;49.068;8.658;2023-01-28T04:47:23;100641.97;;;15.44;34.92
8637;BME280;4356;49.068;8.658;2023-01-28T04:49:48;100641.97;;;15.44;35.13
8637;BME280;4356;49.068;8.658;2023-01-28T04:52:14;100633.84;;;15.44;34.90
8637;BME280;4356;49.068;8.658;2023-01-28T04:54:40;100639.63;;;15.41;34.97
8637;BME280;4356;49.068;8.658;2023-01-28T04:57:05;100634.88;;;15.43;35.13
8637;BME280;4356;49.068;8.658;2023-01-28T04:59:31;100632.66;;;15.39;35.22
8637;BME280;4356;49.068;8.658;2023-01-28T05:01:57;100633.03;;;15.36;35.09
8637;BME280;4356;49.068;8.658;2023-01-28T05:04:23;100643.50;;;15.39;35.22
8637;BME280;4356;49.068;8.658;2023-01-28T05:06:49;100643.88;;;15.36;35.03
8637;BME280;4356;49.068;8.658;2023-01-28T05:09:14;100650.47;;;15.41;35.39
8637;BME280;4356;49.068;8.658;2023-01-28T05:11:40;100648.56;;;15.42;34.96
8637;BME280;4356;49.068;8.658;2023-01-28T05:14:06;100659.41;;;15.42;35.37
8637;BME280;4356;49.068;8.658;2023-01-28T05:16:32;100656.38;;;15.37;35.42
8637;BME280;4356;49.068;8.658;2023-01-28T05:19:00;100635.63;;;15.29;35.27
8637;BME280;4356;49.068;8.658;2023-01-28T05:21:26;100660.59;;;15.39;35.07
8637;BME280;4356;49.068;8.658;2023-01-28T05:23:52;100648.44;;;15.35;35.11
8637;BME280;4356;49.068;8.658;2023-01-28T05:26:17;100654.72;;;15.36;35.58
8637;BME280;4356;49.068;8.658;2023-01-28T05:28:43;100660.94;;;15.36;35.20
8637;BME280;4356;49.068;8.658;2023-01-28T05:31:09;100662.19;;;15.34;35.18
8637;BME280;4356;49.068;8.658;2023-01-28T05:33:35;100659.28;;;15.35;35.09
8637;BME280;4356;49.068;8.658;2023-01-28T05:36:01;100667.88;;;15.39;35.33
8637;BME280;4356;49.068;8.658;2023-01-28T05:38:27;100664.22;;;15.32;35.34
8637;BME280;4356;49.068;8.658;2023-01-28T05:40:52;100662.84;;;15.36;35.17
8637;BME280;4356;49.068;8.658;2023-01-28T05:43:18;100646.00;;;15.26;35.47
8637;BME280;4356;49.068;8.658;2023-01-28T05:45:44;100658.13;;;15.30;35.48
8637;BME280;4356;49.068;8.658;2023-01-28T05:48:12;100681.78;;;15.36;35.51
8637;BME280;4356;49.068;8.658;2023-01-28T05:50:38;100666.66;;;15.27;34.94
8637;BME280;4356;49.068;8.658;2023-01-28T05:53:05;100681.78;;;15.36;35.46
8637;BME280;4356;49.068;8.658;2023-01-28T05:55:30;100679.44;;;15.33;35.47
8637;BME280;4356;49.068;8.658;2023-01-28T05:57:56;100667.84;;;15.24;35.10
8637;BME280;4356;49.068;8.658;2023-01-28T06:00:22;100668.03;;;15.23;35.11
8637;BME280;4356;49.068;8.658;2023-01-28T06:02:50;100683.19;;;15.32;35.42
8637;BME280;4356;49.068;8.658;2023-01-28T06:05:16;100690.25;;;15.33;35.17
8637;BME280;4356;49.068;8.658;2023-01-28T06:07:46;100682.56;;;15.22;35.11
8637;BME280;4356;49.068;8.658;2023-01-28T06:10:12;100694.19;;;15.30;35.47
8637;BME280;4356;49.068;8.658;2023-01-28T06:12:38;100698.09;;;15.28;35.33
8637;BME280;4356;49.068;8.658;2023-01-28T06:15:04;100704.84;;;15.32;35.18
8637;BME280;4356;49.068;8.658;2023-01-28T06:17:30;100710.78;;;15.27;35.33
8637;BME280;4356;49.068;8.658;2023-01-28T06:19:56;100704.56;;;15.27;35.70
8637;BME280;4356;49.068;8.658;2023-01-28T06:22:21;100718.38;;;15.32;35.21
8637;BME280;4356;49.068;8.658;2023-01-28T06:24:47;100720.63;;;15.28;35.47
8637;BME280;4356;49.068;8.658;2023-01-28T06:27:12;100725.84;;;15.30;35.39
8637;BME280;4356;49.068;8.658;2023-01-28T06:29:38;100724.34;;;15.27;35.25
8637;BME280;4356;49.068;8.658;2023-01-28T06:32:04;100728.75;;;15.28;35.21
8637;BME280;4356;49.068;8.658;2023-01-28T06:34:30;100724.69;;;15.24;35.29
8637;BME280;4356;49.068;8.658;2023-01-28T06:36:56;100724.88;;;15.23;35.10
8637;BME280;4356;49.068;8.658;2023-01-28T06:39:21;100738.72;;;15.28;35.82
8637;BME280;4356;49.068;8.658;2023-01-28T06:41:48;100717.66;;;15.15;35.25
8637;BME280;4356;49.068;8.658;2023-01-28T06:44:14;100717.47;;;15.17;35.48
8637;BME280;4356;49.068;8.658;2023-01-28T06:46:40;100746.19;;;15.26;35.34
8637;BME280;4356;49.068;8.658;2023-01-28T06:49:06;100739.63;;;15.20;35.23
8637;BME280;4356;49.068;8.658;2023-01-28T06:51:31;100751.59;;;15.26;35.50
8637;BME280;4356;49.068;8.658;2023-01-28T06:53:57;100741.31;;;15.21;35.48
8637;BME280;4356;49.068;8.658;2023-01-28T06:56:23;100757.19;;;15.24;35.13
8637;BME280;4356;49.068;8.658;2023-01-28T06:58:49;100752.81;;;15.23;35.33
8637;BME280;4356;49.068;8.658;2023-01-28T07:01:14;100750.44;;;15.20;35.54
8637;BME280;4356;49.068;8.658;2023-01-28T07:03:40;100750.44;;;15.20;35.32
8637;BME280;4356;49.068;8.658;2023-01-28T07:06:08;100758.22;;;15.23;35.65
8637;BME280;4356;49.068;8.658;2023-01-28T07:08:34;100758.22;;;15.23;35.50
8637;BME280;4356;49.068;8.658;2023-01-28T07:11:02;100758.22;;;15.23;35.42
8637;BME280;4356;49.068;8.658;2023-01-28T07:13:28;100764.78;;;15.29;35.65
8637;BME280;4356;49.068;8.658;2023-01-28T07:15:54;100758.88;;;15.25;35.34
8637;BME280;4356;49.068;8.658;2023-01-28T07:18:20;100757.38;;;15.23;35.40
8637;BME280;4356;49.068;8.658;2023-01-28T07:20:46;100758.16;;;15.31;34.96
8637;BME280;4356;49.068;8.658;2023-01-28T07:23:12;100763.38;;;15.33;35.20
8637;BME280;4356;49.068;8.658;2023-01-28T07:25:38;100765.09;;;15.34;35.22
8637;BME280;4356;49.068;8.658;2023-01-28T07:28:03;100774.34;;;15.39;35.43
8637;BME280;4356;49.068;8.658;2023-01-28T07:30:29;100772.47;;;15.40;35.11
8637;BME280;4356;49.068;8.658;2023-01-28T07:32:56;100772.66;;;15.38;35.11
8637;BME280;4356;49.068;8.658;2023-01-28T07:35:23;100775.72;;;15.43;35.17
8637;BME280;4356;49.068;8.658;2023-01-28T07:37:56;100770.47;;;15.42;35.25
8637;BME280;4356;49.068;8.658;2023-01-28T07:40:23;100771.13;;;15.44;34.90
8637;BME280;4356;49.068;8.658;2023-01-28T07:42:49;100783.09;;;15.50;35.14
8637;BME280;4356;49.068;8.658;2023-01-28T07:45:15;100782.25;;;15.49;35.21
8637;BME280;4356;49.068;8.658;2023-01-28T07:47:41;100779.38;;;15.51;35.04
8637;BME280;4356;49.068;8.658;2023-01-28T07:50:09;100777.34;;;15.53;35.26
8637;BME280;4356;49.068;8.658;2023-01-28T07:52:36;100777.03;;;15.48;34.92
8637;BME280;4356;49.068;8.658;2023-01-28T07:55:11;100769.28;;;15.44;35.24
8637;BME280;4356;49.068;8.658;2023-01-28T07:57:54;100788.66;;;15.56;34.82
8637;BME280;4356;49.068;8.658;2023-01-28T08:00:25;100795.56;;;15.59;35.20
8637;BME280;4356;49.068;8.658;2023-01-28T08:02:55;100791.00;;;15.59;34.99
8637;BME280;4356;49.068;8.658;2023-01-28T08:05:21;100771.59;;;15.48;35.12
8637;BME280;4356;49.068;8.658;2023-01-28T08:07:48;100795.84;;;15.64;35.27
8637;BME280;4356;49.068;8.658;2023-01-28T08:10:17;100781.34;;;15.57;35.11
8637;BME280;4356;49.068;8.658;2023-01-28T08:12:54;100805.31;;;15.68;35.08
8637;BME280;4356;49.068;8.658;2023-01-28T08:15:20;100809.72;;;15.69;35.03
8637;BME280;4356;49.068;8.658;2023-01-28T08:17:46;100814.97;;;15.70;34.99
8637;BME280;4356;49.068;8.658;2023-01-28T08:20:12;100804.97;;;15.71;35.19
8637;BME280;4356;49.068;8.658;2023-01-28T08:22:38;100801.22;;;15.72;34.96
8637;BME280;4356;49.068;8.658;2023-01-28T08:25:04;100799.72;;;15.69;34.76
8637;BME280;4356;49.068;8.658;2023-01-28T08:27:30;100799.38;;;15.72;34.87
8637;BME280;4356;49.068;8.658;2023-01-28T08:29:56;100808.31;;;15.73;34.87
8637;BME280;4356;49.068;8.658;2023-01-28T08:32:21;100807.31;;;15.74;34.99
8637;BME280;4356;49.068;8.658;2023-01-28T08:34:47;100811.34;;;15.78;34.70
8637;BME280;4356;49.068;8.658;2023-01-28T08:37:13;100814.06;;;15.78;34.79
8637;BME280;4356;49.068;8.658;2023-01-28T08:39:38;100815.72;;;15.79;35.07
8637;BME280;4356;49.068;8.658;2023-01-28T08:42:05;100810.00;;;15.74;34.78
8637;BME280;4356;49.068;8.658;2023-01-28T08:44:34;100814.88;;;15.78;35.03
8637;BME280;4356;49.068;8.658;2023-01-28T08:47:00;100816.38;;;15.81;34.97
8637;BME280;4356;49.068;8.658;2023-01-28T08:49:25;100817.59;;;15.78;35.04
8637;BME280;4356;49.068;8.658;2023-01-28T08:51:51;100817.06;;;15.83;35.09
8637;BME280;4356;49.068;8.658;2023-01-28T08:54:17;100818.91;;;15.82;34.85
8637;BME280;4356;49.068;8.658;2023-01-28T08:56:42;100817.25;;;15.81;34.99
8637;BME280;4356;49.068;8.658;2023-01-28T08:59:12;100821.63;;;15.82;34.98
8637;BME280;4356;49.068;8.658;2023-01-28T09:01:38;100822.47;;;15.83;35.21
8637;BME280;4356;49.068;8.658;2023-01-28T09:04:04;100820.63;;;15.83;35.12
8637;BME280;4356;49.068;8.658;2023-01-28T09:06:29;100827.53;;;15.86;35.10
8637;BME280;4356;49.068;8.658;2023-01-28T09:08:59;100815.19;;;15.83;35.22
8637;BME280;4356;49.068;8.658;2023-01-28T09:11:25;100817.16;;;15.89;34.92
8637;BME280;4356;49.068;8.658;2023-01-28T09:13:51;100826.13;;;15.90;35.09
8637;BME280;4356;49.068;8.658;2023-01-28T09:16:17;100830.91;;;15.88;35.16
8637;BME280;4356;49.068;8.658;2023-01-28T09:18:43;100830.53;;;15.91;34.90
8637;BME280;4356;49.068;8.658;2023-01-28T09:21:09;100830.03;;;15.87;35.28
8637;BME280;4356;49.068;8.658;2023-01-28T09:23:36;100822.75;;;15.88;35.09
8637;BME280;4356;49.068;8.658;2023-01-28T09:26:03;100832.41;;;15.90;35.06
8637;BME280;4356;49.068;8.658;2023-01-28T09:28:30;100839.31;;;15.93;35.28
8637;BME280;4356;49.068;8.658;2023-01-28T09:31:04;100827.00;;;15.90;35.20
8637;BME280;4356;49.068;8.658;2023-01-28T09:33:30;100832.88;;;15.94;35.34
8637;BME280;4356;49.068;8.658;2023-01-28T09:35:59;100841.22;;;15.92;35.40
8637;BME280;4356;49.068;8.658;2023-01-28T09:38:25;100845.41;;;15.95;35.23
8637;BME280;4356;49.068;8.658;2023-01-28T09:40:51;100842.03;;;15.93;35.02
8637;BME280;4356;49.068;8.658;2023-01-28T09:45:55;100852.53;;;15.96;35.47
8637;BME280;4356;49.068;8.658;2023-01-28T09:48:27;100849.97;;;15.94;35.23
8637;BME280;4356;49.068;8.658;2023-01-28T09:50:57;100868.41;;;15.99;35.26
8637;BME280;4356;49.068;8.658;2023-01-28T09:53:30;100859.25;;;16.00;35.18
8637;BME280;4356;49.068;8.658;2023-01-28T09:56:01;100858.59;;;15.98;35.41
8637;BME280;4356;49.068;8.658;2023-01-28T09:58:27;100861.13;;;15.99;34.95
8637;BME280;4356;49.068;8.658;2023-01-28T10:06:22;100862.44;;;16.03;35.32
8637;BME280;4356;49.068;8.658;2023-01-28T10:09:15;100866.00;;;16.04;35.29
8637;BME280;4356;49.068;8.658;2023-01-28T10:11:55;100866.00;;;16.04;34.89
8637;BME280;4356;49.068;8.658;2023-01-28T10:17:22;100858.03;;;16.02;35.17
8637;BME280;4356;49.068;8.658;2023-01-28T10:20:00;100854.13;;;16.05;35.17
8637;BME280;4356;49.068;8.658;2023-01-28T10:22:40;100853.28;;;16.04;34.95
8637;BME280;4356;49.068;8.658;2023-01-28T10:25:19;100855.34;;;16.02;35.13
8637;BME280;4356;49.068;8.658;2023-01-28T10:27:46;100852.44;;;16.04;34.91
8637;BME280;4356;49.068;8.658;2023-01-28T10:30:23;100853.09;;;16.06;35.22
8637;BME280;4356;49.068;8.658;2023-01-28T10:33:00;100847.47;;;16.07;35.08
8637;BME280;4356;49.068;8.658;2023-01-28T10:35:37;100850.19;;;16.07;35.61
8637;BME280;4356;49.068;8.658;2023-01-28T10:38:06;100846.00;;;16.05;35.13
8637;BME280;4356;49.068;8.658;2023-01-28T10:40:33;100857.13;;;16.10;34.93
8637;BME280;4356;49.068;8.658;2023-01-28T10:43:01;100856.09;;;16.11;35.10
8637;BME280;4356;49.068;8.658;2023-01-28T10:48:29;100849.38;;;16.07;35.10
8637;BME280;4356;49.068;8.658;2023-01-28T10:50:59;100854.91;;;16.13;35.18
8637;BME280;4356;49.068;8.658;2023-01-28T10:53:44;100862.00;;;16.14;35.34
8637;BME280;4356;49.068;8.658;2023-01-28T10:56:12;100864.69;;;16.14;35.20
8637;BME280;4356;49.068;8.658;2023-01-28T10:59:19;100862.84;;;16.15;35.28
8637;BME280;4356;49.068;8.658;2023-01-28T11:04:35;100852.19;;;16.13;35.18
8637;BME280;4356;49.068;8.658;2023-01-28T11:07:20;100861.84;;;16.16;35.19
8637;BME280;4356;49.068;8.658;2023-01-28T11:09:50;100853.84;;;16.14;35.28
8637;BME280;4356;49.068;8.658;2023-01-28T11:12:28;100857.41;;;16.15;35.38
8637;BME280;4356;49.068;8.658;2023-01-28T11:15:02;100856.56;;;16.14;35.20
8637;BME280;4356;49.068;8.658;2023-01-28T11:17:32;100865.19;;;16.18;35.06
8637;BME280;4356;49.068;8.658;2023-01-28T11:20:07;100866.69;;;16.20;35.02
8637;BME280;4356;49.068;8.658;2023-01-28T11:22:40;100865.03;;;16.19;35.22
8637;BME280;4356;49.068;8.658;2023-01-28T11:25:18;100864.66;;;16.22;35.28
8637;BME280;4356;49.068;8.658;2023-01-28T11:27:49;100867.34;;;16.22;35.01
8637;BME280;4356;49.068;8.658;2023-01-28T11:30:36;100862.97;;;16.21;35.28
8637;BME280;4356;49.068;8.658;2023-01-28T11:35:38;100871.09;;;16.21;35.13
8637;BME280;4356;49.068;8.658;2023-01-28T11:38:16;100866.16;;;16.25;35.37
8637;BME280;4356;49.068;8.658;2023-01-28T11:40:56;100875.13;;;16.25;35.35
8637;BME280;4356;49.068;8.658;2023-01-28T11:43:24;100868.88;;;16.25;35.11
8637;BME280;4356;49.068;8.658;2023-01-28T11:51:53;100864.06;;;16.27;35.30
8637;BME280;4356;49.068;8.658;2023-01-28T11:54:28;100862.41;;;16.26;35.03
8637;BME280;4356;49.068;8.658;2023-01-28T11:59:55;100862.41;;;16.26;34.96
8637;BME280;4356;49.068;8.658;2023-01-28T12:02:58;100867.81;;;16.26;35.24
8637;BME280;4356;49.068;8.658;2023-01-28T12:05:48;100861.09;;;16.22;35.16
8637;BME280;4356;49.068;8.658;2023-01-28T12:08:40;100864.25;;;16.25;35.32
8637;BME280;4356;49.068;8.658;2023-01-28T12:11:32;100864.44;;;16.24;35.57
8637;BME280;4356;49.068;8.658;2023-01-28T12:17:30;100857.34;;;16.23;35.42
8637;BME280;4356;49.068;8.658;2023-01-28T12:20:23;100853.78;;;16.22;35.73
8637;BME280;4356;49.068;8.658;2023-01-28T12:23:08;100858.19;;;16.23;35.49
8637;BME280;4356;49.068;8.658;2023-01-28T12:25:49;100851.94;;;16.23;35.66
8637;BME280;4356;49.068;8.658;2023-01-28T12:28:34;100850.91;;;16.24;35.63
8637;BME280;4356;49.068;8.658;2023-01-28T12:31:46;100842.94;;;16.22;35.53
8637;BME280;4356;49.068;8.658;2023-01-28T12:40:02;100842.94;;;16.22;35.41
8637;BME280;4356;49.068;8.658;2023-01-28T12:42:46;100837.53;;;16.22;35.63
8637;BME280;4356;49.068;8.658;2023-01-28T12:45:17;100841.28;;;16.21;35.54
8637;BME280;4356;49.068;8.658;2023-01-28T12:47:54;100832.63;;;16.18;35.36
8637;BME280;4356;49.068;8.658;2023-01-28T12:50:30;100832.47;;;16.19;35.61
8637;BME280;4356;49.068;8.658;2023-01-28T12:53:26;100830.97;;;16.17;35.59
8637;BME280;4356;49.068;8.658;2023-01-28T12:55:59;100835.00;;;16.21;35.42
8637;BME280;4356;49.068;8.658;2023-01-28T12:58:42;100837.13;;;16.25;35.30
8637;BME280;4356;49.068;8.658;2023-01-28T13:01:17;100830.03;;;16.24;35.24
8637;BME280;4356;49.068;8.658;2023-01-28T13:04:39;100833.75;;;16.23;35.21
8637;BME280;4356;49.068;8.658;2023-01-28T13:09:59;100824.16;;;16.21;34.87
8637;BME280;4356;49.068;8.658;2023-01-28T13:12:29;100820.59;;;16.20;35.04
8637;BME280;4356;49.068;8.658;2023-01-28T13:14:57;100827.72;;;16.21;34.71
8637;BME280;4356;49.068;8.658;2023-01-28T13:17:29;100825.81;;;16.22;35.06
8637;BME280;4356;49.068;8.658;2023-01-28T13:19:57;100838.00;;;16.26;34.92
8637;BME280;4356;49.068;8.658;2023-01-28T13:22:34;100839.19;;;16.23;34.82
8637;BME280;4356;49.068;8.658;2023-01-28T13:25:21;100844.63;;;16.23;35.21
8637;BME280;4356;49.068;8.658;2023-01-28T13:27:56;100840.03;;;16.24;34.64
8637;BME280;4356;49.068;8.658;2023-01-28T13:30:24;100845.47;;;16.24;34.73
8637;BME280;4356;49.068;8.658;2023-01-28T13:33:01;100849.03;;;16.24;34.87
8637;BME280;4356;49.068;8.658;2023-01-28T13:35:31;100841.44;;;16.20;34.85
8637;BME280;4356;49.068;8.658;2023-01-28T13:37:58;100845.84;;;16.21;34.59
8637;BME280;4356;49.068;8.658;2023-01-28T13:40:27;100844.81;;;16.22;34.75
8637;BME280;4356;49.068;8.658;2023-01-28T13:43:01;100849.22;;;16.23;34.79
8637;BME280;4356;49.068;8.658;2023-01-28T13:45:28;100852.28;;;16.20;34.62
8637;BME280;4356;49.068;8.658;2023-01-28T13:48:17;100861.09;;;16.22;34.83
8637;BME280;4356;49.068;8.658;2023-01-28T13:50:45;100865.03;;;16.19;34.52
8637;BME280;4356;49.068;8.658;2023-01-28T13:53:33;100861.28;;;16.20;34.84
8637;BME280;4356;49.068;8.658;2023-01-28T13:56:05;100860.13;;;16.15;34.73
8637;BME280;4356;49.068;8.658;2023-01-28T14:01:37;100870.44;;;16.19;34.82
8637;BME280;4356;49.068;8.658;2023-01-28T14:07:13;100869.78;;;16.17;34.83
8637;BME280;4356;49.068;8.658;2023-01-28T14:12:59;100876.22;;;16.16;34.76
8637;BME280;4356;49.068;8.658;2023-01-28T14:15:53;100888.09;;;16.15;34.71
8637;BME280;4356;49.068;8.658;2023-01-28T14:20:52;100889.88;;;16.08;34.51
8637;BME280;4356;49.068;8.658;2023-01-28T14:23:21;100895.94;;;16.10;34.82
8637;BME280;4356;49.068;8.658;2023-01-28T14:31:27;100909.50;;;16.10;34.69
8637;BME280;4356;49.068;8.658;2023-01-28T14:34:27;100911.56;;;16.08;34.83
8637;BME280;4356;49.068;8.658;2023-01-28T14:36:56;100905.28;;;16.08;34.59
8637;BME280;4356;49.068;8.658;2023-01-28T14:39:27;100914.94;;;16.10;34.67
8637;BME280;4356;49.068;8.658;2023-01-28T14:41:55;100911.09;;;16.05;34.45
8637;BME280;4356;49.068;8.658;2023-01-28T14:57:57;100931.91;;;16.04;34.40
8637;BME280;4356;49.068;8.658;2023-01-28T15:00:30;100927.34;;;16.05;34.64
8637;BME280;4356;49.068;8.658;2023-01-28T15:02:56;100921.78;;;15.98;34.72
8637;BME280;4356;49.068;8.658;2023-01-28T15:05:26;100920.59;;;16.01;34.65
8637;BME280;4356;49.068;8.658;2023-01-28T15:07:53;100922.81;;;15.97;34.45